Bemiss, Georgia
Current Conditions -  °F | °C
As of 6:53 PM on Wednesday 26 Nov 2014 (Local Time) from KVLD Reporting Station
Clear Clear  
Wind Chill: 45°   Ceiling: Unl
Heat Index: 45°   Visibility: 10mi
Dew Point: 40°   Wind: 3mph
Humidity: 82%   Direction: 170°S
Pressure: 30.16"   Gusts: NA
Location:  30.8853°N, 83.3291°W
Report Text: KVLD 262353Z 17003KT 10SM CLR 07/04 A3016 RMK AO2 SLP222 T00720044 10161 20067 51007
Loading
Personal Weather Stations






























Interactive Weather Map New forecast layout! Learn more

10-Day Weather Forecast

Advertisements
Track Severe Weather on mobile